Time;durP1;ratioP1;P1;durP2;ratioP2;P2;SDS_P1;SDS_P2;PMS_P1;PMS_P2;Temp;Humidity;BMP_temperature;BMP_pressure;BME280_temperature;BME280_humidity;BME280_pressure;Samples;Min_cycle;Max_cycle;Signal;HPM_P1;HPM_P2
2021/06/16 00:01:26;;;;;;;;;0.00;0.00;;;;;;;;5090359;28;8940;-48
2021/06/16 00:03:51;;;;;;;;;0.00;0.00;;;;;;;;5093761;28;8858;-46
2021/06/16 00:06:17;;;;;;;;;0.00;0.00;;;;;;;;5089245;28;8788;-46
2021/06/16 00:08:42;;;;;;;;;0.00;0.00;;;;;;;;5097875;28;10063;-47
2021/06/16 00:11:08;;;;;;;;;0.00;0.00;;;;;;;;5091171;28;8904;-46
2021/06/16 00:13:33;;;;;;;;;0.00;0.00;;;;;;;;5101418;28;9522;-46
2021/06/16 00:15:58;;;;;;;;;0.00;0.00;;;;;;;;5095197;28;8767;-48
2021/06/16 00:18:24;;;;;;;;;0.00;0.00;;;;;;;;5095190;28;8766;-47
2021/06/16 00:20:49;;;;;;;;;0.00;0.00;;;;;;;;5093686;28;8815;-47
2021/06/16 00:23:14;;;;;;;;;0.00;0.00;;;;;;;;5095386;28;8910;-46
2021/06/16 00:25:39;;;;;;;;;0.00;0.00;;;;;;;;5090772;28;8795;-47
2021/06/16 00:28:04;;;;;;;;;0.00;0.00;;;;;;;;5093582;28;8836;-46
2021/06/16 00:30:31;;;;;;;;;0.00;0.00;;;;;;;;5091250;28;8818;-48
2021/06/16 00:32:56;;;;;;;;;0.00;0.00;;;;;;;;5097680;28;8880;-46
2021/06/16 00:35:21;;;;;;;;;0.00;0.00;;;;;;;;5092147;28;8885;-46
2021/06/16 00:37:48;;;;;;;;;0.00;0.00;;;;;;;;5098500;28;8755;-47
2021/06/16 00:40:14;;;;;;;;;0.00;0.00;;;;;;;;5095254;28;8762;-46
2021/06/16 00:42:39;;;;;;;;;0.00;0.00;;;;;;;;5097222;28;8767;-48
2021/06/16 00:45:05;;;;;;;;;0.00;0.00;;;;;;;;5093961;28;8789;-48
2021/06/16 00:47:31;;;;;;;;;0.00;0.00;;;;;;;;5091662;28;8846;-48
2021/06/16 00:49:56;;;;;;;;;0.00;0.00;;;;;;;;5091461;28;8771;-48
2021/06/16 00:52:21;;;;;;;;;0.33;0.33;;;;;;;;5097322;28;9603;-47
2021/06/16 00:54:47;;;;;;;;;0.00;0.00;;;;;;;;5092508;28;8786;-48
2021/06/16 00:57:12;;;;;;;;;0.00;0.00;;;;;;;;5091966;28;8775;-47
2021/06/16 00:59:55;;;;;;;;;0.00;0.00;;;;;;;;5089676;28;8820;-47
2021/06/16 01:02:21;;;;;;;;;0.25;0.00;;;;;;;;5099391;28;8797;-47
2021/06/16 01:04:48;;;;;;;;;0.00;0.00;;;;;;;;5090877;28;8766;-48
2021/06/16 01:07:14;;;;;;;;;0.00;0.00;;;;;;;;5101376;28;8765;-46
2021/06/16 01:09:42;;;;;;;;;0.00;0.00;;;;;;;;5094798;28;8775;-46
2021/06/16 01:12:13;;;;;;;;;0.00;0.00;;;;;;;;5090693;28;9680;-47
2021/06/16 01:14:43;;;;;;;;;0.00;0.00;;;;;;;;5094839;28;8740;-47
2021/06/16 01:17:09;;;;;;;;;0.00;0.00;;;;;;;;5095794;28;8736;-45
2021/06/16 01:20:07;;;;;;;;;0.00;0.00;;;;;;;;5090673;28;8939;-48
2021/06/16 01:22:32;;;;;;;;;0.00;0.00;;;;;;;;5052002;28;8905;-45
2021/06/16 01:25:03;;;;;;;;;0.00;0.00;;;;;;;;5091369;28;8781;-47
2021/06/16 01:27:28;;;;;;;;;0.00;0.00;;;;;;;;5094706;28;8750;-48
2021/06/16 01:29:56;;;;;;;;;0.00;0.00;;;;;;;;5094459;28;9682;-47
2021/06/16 01:32:22;;;;;;;;;0.00;0.00;;;;;;;;5087599;28;8781;-47
2021/06/16 01:34:47;;;;;;;;;0.00;0.00;;;;;;;;5091666;28;8712;-47
2021/06/16 01:37:12;;;;;;;;;0.00;0.00;;;;;;;;5098663;28;11439;-47
2021/06/16 01:39:38;;;;;;;;;0.00;0.00;;;;;;;;5100489;28;8783;-47
2021/06/16 01:42:06;;;;;;;;;0.00;0.00;;;;;;;;5091688;28;8749;-48
2021/06/16 01:44:32;;;;;;;;;0.00;0.00;;;;;;;;5095749;28;8761;-48
2021/06/16 01:46:58;;;;;;;;;0.00;0.00;;;;;;;;5094749;28;8802;-46
2021/06/16 01:49:26;;;;;;;;;0.00;0.00;;;;;;;;5095020;28;8787;-47
2021/06/16 01:51:52;;;;;;;;;0.00;0.00;;;;;;;;5099096;28;8807;-47
2021/06/16 01:54:18;;;;;;;;;0.00;0.00;;;;;;;;5097787;28;8755;-47
2021/06/16 01:56:44;;;;;;;;;0.00;0.00;;;;;;;;5097351;28;8787;-47
2021/06/16 01:59:10;;;;;;;;;0.00;0.00;;;;;;;;5096493;28;8778;-47
2021/06/16 02:01:36;;;;;;;;;0.00;0.00;;;;;;;;5098076;28;8799;-46
2021/06/16 02:04:01;;;;;;;;;0.00;0.00;;;;;;;;5100265;28;9609;-47
2021/06/16 02:06:28;;;;;;;;;0.00;0.00;;;;;;;;5096641;28;8778;-47
2021/06/16 02:08:53;;;;;;;;;0.00;0.00;;;;;;;;5090579;28;8810;-45
2021/06/16 02:11:20;;;;;;;;;0.00;0.00;;;;;;;;5095289;28;8777;-46
2021/06/16 02:13:49;;;;;;;;;0.00;0.00;;;;;;;;5100118;28;8739;-47
2021/06/16 02:16:17;;;;;;;;;0.00;0.00;;;;;;;;5099397;28;8859;-47
2021/06/16 02:18:42;;;;;;;;;0.00;0.00;;;;;;;;5093937;28;8797;-47
2021/06/16 02:21:07;;;;;;;;;0.00;0.00;;;;;;;;5095444;28;9506;-47
2021/06/16 02:23:32;;;;;;;;;0.00;0.00;;;;;;;;5104767;28;8767;-47
2021/06/16 02:25:58;;;;;;;;;0.00;0.00;;;;;;;;5095324;28;9058;-47
2021/06/16 02:28:23;;;;;;;;;0.00;0.00;;;;;;;;5102119;28;8805;-47
2021/06/16 02:30:48;;;;;;;;;0.00;0.00;;;;;;;;5099135;28;8842;-45
2021/06/16 02:33:14;;;;;;;;;0.00;0.00;;;;;;;;5091810;28;8781;-47
2021/06/16 02:35:39;;;;;;;;;0.00;0.00;;;;;;;;5092281;28;8801;-47
2021/06/16 02:38:07;;;;;;;;;0.00;0.00;;;;;;;;5098080;28;9512;-48
2021/06/16 02:40:33;;;;;;;;;0.00;0.00;;;;;;;;5094802;28;8788;-48
2021/06/16 02:42:59;;;;;;;;;0.00;0.00;;;;;;;;5105149;28;8778;-47
2021/06/16 02:45:26;;;;;;;;;0.00;0.00;;;;;;;;5094181;28;8762;-47
2021/06/16 02:47:53;;;;;;;;;0.00;0.00;;;;;;;;5102021;28;8768;-47
2021/06/16 02:50:20;;;;;;;;;0.00;0.00;;;;;;;;5093828;28;8771;-47
2021/06/16 02:52:46;;;;;;;;;0.00;0.00;;;;;;;;5102306;28;8800;-46
2021/06/16 02:55:12;;;;;;;;;0.00;0.00;;;;;;;;5082464;28;8790;-46
2021/06/16 02:57:39;;;;;;;;;0.00;0.00;;;;;;;;5097059;28;8760;-46
2021/06/16 03:00:07;;;;;;;;;0.00;0.00;;;;;;;;5094555;28;9468;-47
2021/06/16 03:02:32;;;;;;;;;0.00;0.00;;;;;;;;5091016;28;8745;-48
2021/06/16 03:04:58;;;;;;;;;0.00;0.00;;;;;;;;5093836;28;8802;-47
2021/06/16 03:07:24;;;;;;;;;0.00;0.00;;;;;;;;5100764;28;8837;-47
2021/06/16 03:09:50;;;;;;;;;0.00;0.00;;;;;;;;5097876;28;9115;-47
2021/06/16 03:12:16;;;;;;;;;0.00;0.00;;;;;;;;5095727;28;11316;-47
2021/06/16 03:14:41;;;;;;;;;0.00;0.00;;;;;;;;5092397;28;9619;-47
2021/06/16 03:17:08;;;;;;;;;0.00;0.00;;;;;;;;5095014;28;9030;-45
2021/06/16 03:19:33;;;;;;;;;0.00;0.00;;;;;;;;5092989;28;8747;-45
2021/06/16 03:22:02;;;;;;;;;0.00;0.00;;;;;;;;5102188;28;8785;-48
2021/06/16 03:24:27;;;;;;;;;0.00;0.00;;;;;;;;5094356;28;8801;-47
2021/06/16 03:26:53;;;;;;;;;0.00;0.00;;;;;;;;5091174;28;8751;-47
2021/06/16 03:29:19;;;;;;;;;0.00;0.00;;;;;;;;5094482;28;8754;-48
2021/06/16 03:31:45;;;;;;;;;0.00;0.00;;;;;;;;5089492;28;11269;-46
2021/06/16 03:34:10;;;;;;;;;0.00;0.00;;;;;;;;5095195;28;8767;-47
2021/06/16 03:36:36;;;;;;;;;0.00;0.00;;;;;;;;5100738;28;8795;-46
2021/06/16 03:39:02;;;;;;;;;0.00;0.00;;;;;;;;5091302;28;8749;-47
2021/06/16 03:41:28;;;;;;;;;0.00;0.00;;;;;;;;5094192;28;8784;-47
2021/06/16 03:43:53;;;;;;;;;0.00;0.00;;;;;;;;5093775;28;9480;-47
2021/06/16 03:46:19;;;;;;;;;0.00;0.00;;;;;;;;5095749;28;8759;-48
2021/06/16 03:48:45;;;;;;;;;0.00;0.00;;;;;;;;5093588;28;8781;-47
2021/06/16 03:51:11;;;;;;;;;0.00;0.00;;;;;;;;5097875;28;8950;-47
2021/06/16 03:53:37;;;;;;;;;0.00;0.00;;;;;;;;5090878;28;9571;-46
2021/06/16 03:56:02;;;;;;;;;0.00;0.00;;;;;;;;5096064;28;8753;-48
2021/06/16 03:58:27;;;;;;;;;0.00;0.00;;;;;;;;5095393;28;8771;-47
2021/06/16 04:00:53;;;;;;;;;0.00;0.00;;;;;;;;5099596;28;8798;-47
2021/06/16 04:03:19;;;;;;;;;0.00;0.00;;;;;;;;5092975;28;8790;-47
2021/06/16 04:05:45;;;;;;;;;0.00;0.00;;;;;;;;5091658;28;8806;-48
2021/06/16 04:08:11;;;;;;;;;0.00;0.00;;;;;;;;5094147;28;8771;-47
2021/06/16 04:10:37;;;;;;;;;0.00;0.00;;;;;;;;5092121;28;8805;-46
2021/06/16 04:13:03;;;;;;;;;0.00;0.00;;;;;;;;5094624;28;8795;-47
2021/06/16 04:15:28;;;;;;;;;0.00;0.00;;;;;;;;5098147;28;8835;-47
2021/06/16 04:17:54;;;;;;;;;0.00;0.00;;;;;;;;5089940;28;8767;-45
2021/06/16 04:20:19;;;;;;;;;0.00;0.00;;;;;;;;5095945;28;8767;-47
2021/06/16 04:22:45;;;;;;;;;0.00;0.00;;;;;;;;5092953;28;11344;-47
2021/06/16 04:25:10;;;;;;;;;0.00;0.00;;;;;;;;5095176;28;8817;-48
2021/06/16 04:27:36;;;;;;;;;0.00;0.00;;;;;;;;5093941;28;8812;-46
2021/06/16 04:30:03;;;;;;;;;0.00;0.00;;;;;;;;5096439;28;9662;-46
2021/06/16 04:32:28;;;;;;;;;0.00;0.00;;;;;;;;5090787;28;8829;-48
2021/06/16 04:34:53;;;;;;;;;0.00;0.00;;;;;;;;5092542;28;8775;-47
2021/06/16 04:37:18;;;;;;;;;0.00;0.00;;;;;;;;5090333;28;8824;-47
2021/06/16 04:39:44;;;;;;;;;0.00;0.00;;;;;;;;5095998;28;9018;-47
2021/06/16 04:42:09;;;;;;;;;0.00;0.00;;;;;;;;5087222;28;8760;-47
2021/06/16 04:44:34;;;;;;;;;0.00;0.00;;;;;;;;5087965;28;8758;-47
2021/06/16 04:46:59;;;;;;;;;0.00;0.00;;;;;;;;5090220;28;8974;-48
2021/06/16 04:49:26;;;;;;;;;0.00;0.00;;;;;;;;5093498;28;8848;-47
2021/06/16 04:51:53;;;;;;;;;0.00;0.00;;;;;;;;5094337;28;8987;-47
2021/06/16 04:54:18;;;;;;;;;0.00;0.00;;;;;;;;5098260;28;8835;-46
2021/06/16 04:56:43;;;;;;;;;0.00;0.00;;;;;;;;5093574;28;8775;-47
2021/06/16 04:59:09;;;;;;;;;0.00;0.00;;;;;;;;5090248;28;8777;-47
2021/06/16 05:01:34;;;;;;;;;0.00;0.00;;;;;;;;5088838;28;8877;-48
2021/06/16 05:03:59;;;;;;;;;0.00;0.00;;;;;;;;5093764;28;8793;-48
2021/06/16 05:06:25;;;;;;;;;0.00;0.00;;;;;;;;5096242;28;8806;-48
2021/06/16 05:08:50;;;;;;;;;0.00;0.00;;;;;;;;5094473;28;8755;-48
2021/06/16 05:11:15;;;;;;;;;0.00;0.00;;;;;;;;5093265;28;8853;-46
2021/06/16 05:13:41;;;;;;;;;0.00;0.00;;;;;;;;5093898;28;8721;-48
2021/06/16 05:16:06;;;;;;;;;0.00;0.00;;;;;;;;5097693;28;8950;-46
2021/06/16 05:18:32;;;;;;;;;0.00;0.00;;;;;;;;5094689;28;8782;-47
2021/06/16 05:20:57;;;;;;;;;0.00;0.00;;;;;;;;5093516;28;9491;-48
2021/06/16 05:23:27;;;;;;;;;0.00;0.00;;;;;;;;5090967;28;8855;-47
2021/06/16 05:25:52;;;;;;;;;0.00;0.00;;;;;;;;5097420;28;8731;-47
2021/06/16 05:28:18;;;;;;;;;0.00;0.00;;;;;;;;5095406;28;8804;-48
2021/06/16 05:30:43;;;;;;;;;0.00;0.00;;;;;;;;5094957;28;8821;-48
2021/06/16 05:33:08;;;;;;;;;0.00;0.00;;;;;;;;5095799;28;8865;-47
2021/06/16 05:35:33;;;;;;;;;0.00;0.00;;;;;;;;5095422;28;8929;-47
2021/06/16 05:37:59;;;;;;;;;0.00;0.00;;;;;;;;5095775;28;8794;-47
2021/06/16 05:40:24;;;;;;;;;0.00;0.00;;;;;;;;5091197;28;8773;-47
2021/06/16 05:42:49;;;;;;;;;0.00;0.00;;;;;;;;5096111;28;8783;-48
2021/06/16 05:45:14;;;;;;;;;0.00;0.00;;;;;;;;5091738;28;8785;-48
2021/06/16 05:47:40;;;;;;;;;0.00;0.00;;;;;;;;5091775;28;8798;-47
2021/06/16 05:50:05;;;;;;;;;0.00;0.00;;;;;;;;5090983;28;8806;-48
2021/06/16 05:52:31;;;;;;;;;0.00;0.00;;;;;;;;5090074;28;8805;-46
2021/06/16 05:54:56;;;;;;;;;0.67;0.67;;;;;;;;5092869;28;8767;-48
2021/06/16 05:57:21;;;;;;;;;1.00;1.00;;;;;;;;5089605;28;9504;-47
2021/06/16 05:59:46;;;;;;;;;0.00;0.00;;;;;;;;5088243;28;8783;-47
2021/06/16 06:02:12;;;;;;;;;0.00;0.00;;;;;;;;5087367;28;8766;-47
2021/06/16 06:04:39;;;;;;;;;0.33;0.00;;;;;;;;5084267;28;9939;-47
2021/06/16 06:07:05;;;;;;;;;0.00;0.00;;;;;;;;5073019;28;8937;-45
2021/06/16 06:09:30;;;;;;;;;0.00;0.00;;;;;;;;5072264;28;8797;-46
2021/06/16 06:11:55;;;;;;;;;0.00;0.00;;;;;;;;5086899;28;8886;-47
2021/06/16 06:14:20;;;;;;;;;0.00;0.00;;;;;;;;5086098;28;8859;-48
2021/06/16 06:16:46;;;;;;;;;0.00;0.00;;;;;;;;5091067;28;8795;-47
2021/06/16 06:19:11;;;;;;;;;0.00;0.00;;;;;;;;5092925;28;8798;-48
2021/06/16 06:21:36;;;;;;;;;0.00;0.00;;;;;;;;5087982;28;8815;-46
2021/06/16 06:24:02;;;;;;;;;0.00;0.00;;;;;;;;5091721;28;8771;-47
2021/06/16 06:26:28;;;;;;;;;0.00;0.00;;;;;;;;5091314;28;8763;-47
2021/06/16 06:28:53;;;;;;;;;0.00;0.00;;;;;;;;5095319;28;8785;-47
2021/06/16 06:31:19;;;;;;;;;0.00;0.00;;;;;;;;5089964;28;9689;-48
2021/06/16 06:33:44;;;;;;;;;0.00;0.00;;;;;;;;5090574;28;9490;-49
2021/06/16 06:36:09;;;;;;;;;0.00;0.00;;;;;;;;5091125;28;8867;-47
2021/06/16 06:38:35;;;;;;;;;0.00;0.00;;;;;;;;5092457;28;8827;-47
2021/06/16 06:41:00;;;;;;;;;0.00;0.00;;;;;;;;5089313;28;8824;-46
2021/06/16 06:43:25;;;;;;;;;0.00;0.00;;;;;;;;5091829;28;8905;-47
2021/06/16 06:45:50;;;;;;;;;0.00;0.00;;;;;;;;5092013;28;8852;-47
2021/06/16 06:48:16;;;;;;;;;0.00;0.00;;;;;;;;5089207;28;8809;-47
2021/06/16 06:50:41;;;;;;;;;0.00;0.00;;;;;;;;5088167;28;8765;-47
2021/06/16 06:53:06;;;;;;;;;0.00;0.00;;;;;;;;5091557;28;8767;-47
2021/06/16 06:55:31;;;;;;;;;0.00;0.00;;;;;;;;5088071;28;8786;-48
2021/06/16 06:57:56;;;;;;;;;0.00;0.00;;;;;;;;5091042;28;8822;-47
2021/06/16 07:00:22;;;;;;;;;1.00;0.00;;;;;;;;5088668;28;8828;-47
2021/06/16 07:02:47;;;;;;;;;0.00;0.00;;;;;;;;5095566;28;8755;-47
2021/06/16 07:05:13;;;;;;;;;1.33;0.00;;;;;;;;5090049;28;8763;-48
2021/06/16 07:07:38;;;;;;;;;0.00;0.00;;;;;;;;5091546;28;8886;-46
2021/06/16 07:10:04;;;;;;;;;0.00;0.00;;;;;;;;5092689;28;8787;-47
2021/06/16 07:12:30;;;;;;;;;0.00;0.00;;;;;;;;5088321;28;8846;-44
2021/06/16 07:14:55;;;;;;;;;0.00;0.00;;;;;;;;5089537;28;8782;-48
2021/06/16 07:17:22;;;;;;;;;0.67;0.00;;;;;;;;5091073;28;8847;-48
2021/06/16 07:19:47;;;;;;;;;0.00;0.00;;;;;;;;5091015;28;8941;-49
2021/06/16 07:22:13;;;;;;;;;0.00;0.00;;;;;;;;5095969;28;8934;-48
2021/06/16 07:24:38;;;;;;;;;0.00;0.00;;;;;;;;5089826;28;8783;-46
2021/06/16 07:27:04;;;;;;;;;1.00;1.00;;;;;;;;5090621;28;8802;-48
2021/06/16 07:29:29;;;;;;;;;0.00;0.00;;;;;;;;5090900;28;8778;-47
2021/06/16 07:31:54;;;;;;;;;0.00;0.00;;;;;;;;5088060;28;8895;-49
2021/06/16 07:34:19;;;;;;;;;0.00;0.00;;;;;;;;5085873;28;8779;-48
2021/06/16 07:36:44;;;;;;;;;0.00;0.00;;;;;;;;5088992;28;8759;-48
2021/06/16 07:39:10;;;;;;;;;0.00;0.00;;;;;;;;5091815;28;8755;-48
2021/06/16 07:41:35;;;;;;;;;0.00;0.00;;;;;;;;5089056;28;8921;-48
2021/06/16 07:44:00;;;;;;;;;0.00;0.00;;;;;;;;5090504;28;8860;-48
2021/06/16 07:46:25;;;;;;;;;1.00;1.00;;;;;;;;5092889;28;8819;-48
2021/06/16 07:48:51;;;;;;;;;0.67;0.67;;;;;;;;5088559;28;8752;-46
2021/06/16 07:51:17;;;;;;;;;0.33;0.33;;;;;;;;5092518;28;8831;-47
2021/06/16 07:53:42;;;;;;;;;1.00;0.00;;;;;;;;5088941;28;9528;-48
2021/06/16 07:56:07;;;;;;;;;0.00;0.00;;;;;;;;5093441;28;8775;-48
2021/06/16 07:58:32;;;;;;;;;0.00;0.00;;;;;;;;5089799;28;8810;-48
2021/06/16 08:00:58;;;;;;;;;0.00;0.00;;;;;;;;5097426;28;8818;-48
2021/06/16 08:03:23;;;;;;;;;0.67;0.67;;;;;;;;5088358;28;8795;-48
2021/06/16 08:05:50;;;;;;;;;1.00;1.00;;;;;;;;5091054;28;8779;-47
2021/06/16 08:08:15;;;;;;;;;1.00;1.00;;;;;;;;5088263;28;9610;-49
2021/06/16 08:10:41;;;;;;;;;0.00;0.00;;;;;;;;5091116;28;8739;-48
2021/06/16 08:13:06;;;;;;;;;1.00;1.00;;;;;;;;5089058;28;8779;-48
2021/06/16 08:15:33;;;;;;;;;1.00;1.00;;;;;;;;5099579;28;8759;-48
2021/06/16 08:17:58;;;;;;;;;1.00;1.00;;;;;;;;5089726;28;8755;-47
2021/06/16 08:20:23;;;;;;;;;0.33;0.33;;;;;;;;5094779;28;8842;-48
2021/06/16 08:22:48;;;;;;;;;0.33;0.00;;;;;;;;5089022;28;8813;-48
2021/06/16 08:25:13;;;;;;;;;1.00;1.00;;;;;;;;5099043;28;9534;-48
2021/06/16 08:27:40;;;;;;;;;0.00;0.00;;;;;;;;5090544;28;8767;-47
2021/06/16 08:30:06;;;;;;;;;0.00;0.00;;;;;;;;5092836;28;9540;-48
2021/06/16 08:32:31;;;;;;;;;0.67;0.67;;;;;;;;5086511;28;8771;-48
2021/06/16 08:34:56;;;;;;;;;1.00;1.00;;;;;;;;5095547;28;8819;-47
2021/06/16 08:37:22;;;;;;;;;0.67;0.67;;;;;;;;5088061;28;8755;-48
2021/06/16 08:39:47;;;;;;;;;1.00;1.00;;;;;;;;5093824;28;8773;-48
2021/06/16 08:42:12;;;;;;;;;0.67;0.67;;;;;;;;5071157;28;8825;-47
2021/06/16 08:44:38;;;;;;;;;0.33;0.33;;;;;;;;5092673;28;8751;-48
2021/06/16 08:47:06;;;;;;;;;1.00;0.00;;;;;;;;5089552;28;8782;-48
2021/06/16 08:49:33;;;;;;;;;0.75;0.75;;;;;;;;5088903;28;9838;-47
2021/06/16 08:51:59;;;;;;;;;0.67;0.33;;;;;;;;5089209;28;8972;-48
2021/06/16 08:54:24;;;;;;;;;0.33;0.33;;;;;;;;5089839;28;8817;-47
2021/06/16 08:56:50;;;;;;;;;0.00;0.00;;;;;;;;5089367;28;8799;-47
2021/06/16 08:59:15;;;;;;;;;0.00;0.00;;;;;;;;5090858;28;8771;-49
2021/06/16 09:01:40;;;;;;;;;1.00;1.00;;;;;;;;5087530;28;8991;-49
2021/06/16 09:04:06;;;;;;;;;0.00;0.00;;;;;;;;5088431;28;8809;-49
2021/06/16 09:06:31;;;;;;;;;0.00;0.00;;;;;;;;5092089;28;8787;-47
2021/06/16 09:08:56;;;;;;;;;1.00;1.00;;;;;;;;5089528;28;8807;-48
2021/06/16 09:11:23;;;;;;;;;1.00;0.00;;;;;;;;5091858;28;8831;-48
2021/06/16 09:13:49;;;;;;;;;0.00;0.00;;;;;;;;5087047;28;8735;-47
2021/06/16 09:16:28;;;;;;;;;0.00;0.00;;;;;;;;5092693;28;8848;-47
2021/06/16 09:18:54;;;;;;;;;0.25;0.25;;;;;;;;5087409;28;11321;-48
2021/06/16 09:21:35;;;;;;;;;0.67;0.67;;;;;;;;5089028;28;9610;-48
2021/06/16 09:24:01;;;;;;;;;0.00;0.00;;;;;;;;5087683;28;8958;-48
2021/06/16 09:26:31;;;;;;;;;0.00;0.00;;;;;;;;5089382;28;8918;-47
2021/06/16 09:28:57;;;;;;;;;0.00;0.00;;;;;;;;5088573;28;8874;-47
2021/06/16 09:31:23;;;;;;;;;1.00;1.00;;;;;;;;5086249;28;9514;-48
2021/06/16 09:33:49;;;;;;;;;0.00;0.00;;;;;;;;5073144;28;8803;-47
2021/06/16 09:36:18;;;;;;;;;0.00;0.00;;;;;;;;4973100;28;327452;-47
2021/06/16 09:38:46;;;;;;;;;0.00;0.00;;;;;;;;5060537;28;8798;-47
2021/06/16 09:41:12;;;;;;;;;0.00;0.00;;;;;;;;5063263;28;8787;-47
2021/06/16 09:43:39;;;;;;;;;1.00;0.00;;;;;;;;5052105;28;8922;-48
2021/06/16 09:46:05;;;;;;;;;0.00;0.00;;;;;;;;5068233;28;9545;-48
2021/06/16 09:48:37;;;;;;;;;0.25;0.25;;;;;;;;5066029;28;8775;-47
2021/06/16 09:51:13;;;;;;;;;0.00;0.00;;;;;;;;5069044;28;8828;-47
2021/06/16 09:53:58;;;;;;;;;0.00;0.00;;;;;;;;5070556;28;8791;-47
2021/06/16 09:56:24;;;;;;;;;0.00;0.00;;;;;;;;5065632;28;8810;-48
2021/06/16 09:58:49;;;;;;;;;0.67;0.67;;;;;;;;5069062;28;8752;-47
2021/06/16 10:01:14;;;;;;;;;1.00;1.00;;;;;;;;5070530;28;8825;-47
2021/06/16 10:03:41;;;;;;;;;0.67;0.67;;;;;;;;5072968;28;8900;-48
2021/06/16 10:06:13;;;;;;;;;0.00;0.00;;;;;;;;5070764;28;8799;-48
2021/06/16 10:08:42;;;;;;;;;1.00;1.00;;;;;;;;5077456;28;8779;-46
2021/06/16 10:11:08;;;;;;;;;0.00;0.00;;;;;;;;5071734;28;8819;-48
2021/06/16 10:13:34;;;;;;;;;0.00;0.00;;;;;;;;5070525;28;8821;-47
2021/06/16 10:16:00;;;;;;;;;0.00;0.00;;;;;;;;5069960;28;8817;-47
2021/06/16 10:18:26;;;;;;;;;0.00;0.00;;;;;;;;5069800;28;10676;-47
2021/06/16 10:20:52;;;;;;;;;0.00;0.00;;;;;;;;5070404;28;8776;-48
2021/06/16 10:23:18;;;;;;;;;0.00;0.00;;;;;;;;5070329;28;8802;-47
2021/06/16 10:25:44;;;;;;;;;0.00;0.00;;;;;;;;5070675;28;8777;-48
2021/06/16 10:28:09;;;;;;;;;0.00;0.00;;;;;;;;5076053;28;8797;-48
2021/06/16 10:30:40;;;;;;;;;0.00;0.00;;;;;;;;5069918;28;8789;-47
2021/06/16 10:33:25;;;;;;;;;0.00;0.00;;;;;;;;5067767;28;10910;-48
2021/06/16 10:36:04;;;;;;;;;1.00;0.00;;;;;;;;5060045;28;8915;-48
2021/06/16 10:38:30;;;;;;;;;0.00;0.00;;;;;;;;5060064;28;8787;-48
2021/06/16 10:40:57;;;;;;;;;0.00;0.00;;;;;;;;5058609;28;8803;-48
2021/06/16 10:43:28;;;;;;;;;0.00;0.00;;;;;;;;5066197;28;9558;-48
2021/06/16 10:45:58;;;;;;;;;0.50;0.50;;;;;;;;5071277;28;8800;-48
2021/06/16 10:48:42;;;;;;;;;0.00;0.00;;;;;;;;5067775;28;8857;-48
2021/06/16 10:51:08;;;;;;;;;0.50;0.00;;;;;;;;5067020;28;8967;-49
2021/06/16 10:53:33;;;;;;;;;0.00;0.00;;;;;;;;5067684;28;9632;-49
2021/06/16 10:56:03;;;;;;;;;0.00;0.00;;;;;;;;5067859;28;8791;-49
2021/06/16 10:58:32;;;;;;;;;1.00;1.00;;;;;;;;5068316;28;8802;-49
2021/06/16 11:01:12;;;;;;;;;0.25;0.25;;;;;;;;5073336;28;9578;-48
2021/06/16 11:03:47;;;;;;;;;0.00;0.00;;;;;;;;5069922;28;9544;-48
2021/06/16 11:06:30;;;;;;;;;0.00;0.00;;;;;;;;5071628;28;8795;-48
2021/06/16 11:08:55;;;;;;;;;0.00;0.00;;;;;;;;5070579;28;9767;-48
2021/06/16 11:11:21;;;;;;;;;1.00;0.00;;;;;;;;5065433;28;8826;-48
2021/06/16 11:13:46;;;;;;;;;0.00;0.00;;;;;;;;5072258;28;8779;-47
2021/06/16 11:16:30;;;;;;;;;0.00;0.00;;;;;;;;5071413;28;8797;-48
2021/06/16 11:19:14;;;;;;;;;0.00;0.00;;;;;;;;5066088;28;8878;-48
2021/06/16 11:21:39;;;;;;;;;0.25;0.00;;;;;;;;5069751;28;8801;-46
2021/06/16 11:24:05;;;;;;;;;0.00;0.00;;;;;;;;5067104;28;8828;-48
2021/06/16 11:26:46;;;;;;;;;0.00;0.00;;;;;;;;5066250;28;8795;-46
2021/06/16 11:29:31;;;;;;;;;0.75;0.75;;;;;;;;5067398;28;8791;-47
2021/06/16 11:32:09;;;;;;;;;0.00;0.00;;;;;;;;5066088;28;8806;-49
2021/06/16 11:34:47;;;;;;;;;0.00;0.00;;;;;;;;5064129;28;9634;-47
2021/06/16 11:37:32;;;;;;;;;0.00;0.00;;;;;;;;5070625;28;8778;-48
2021/06/16 11:40:02;;;;;;;;;0.00;0.00;;;;;;;;5067596;28;8790;-48
2021/06/16 11:42:27;;;;;;;;;0.50;0.50;;;;;;;;5067873;28;8874;-47
2021/06/16 11:44:52;;;;;;;;;0.00;0.00;;;;;;;;5068217;28;8782;-48
2021/06/16 11:47:18;;;;;;;;;0.00;0.00;;;;;;;;5064489;28;8820;-47
2021/06/16 11:49:44;;;;;;;;;0.00;0.00;;;;;;;;5067061;28;8767;-47
2021/06/16 11:52:09;;;;;;;;;0.00;0.00;;;;;;;;5071970;28;8795;-48
2021/06/16 11:54:38;;;;;;;;;0.00;0.00;;;;;;;;5067127;28;8811;-52
2021/06/16 11:57:09;;;;;;;;;0.00;0.00;;;;;;;;5068786;28;8797;-48
2021/06/16 11:59:36;;;;;;;;;0.25;0.25;;;;;;;;5067508;28;8783;-48
2021/06/16 12:02:04;;;;;;;;;0.00;0.00;;;;;;;;5066942;28;8774;-48
2021/06/16 12:05:03;;;;;;;;;0.00;0.00;;;;;;;;5064892;28;8789;-49
2021/06/16 12:07:29;;;;;;;;;0.00;0.00;;;;;;;;5035275;28;8837;-47
2021/06/16 12:09:59;;;;;;;;;0.00;0.00;;;;;;;;5068573;28;8895;-47
2021/06/16 12:12:25;;;;;;;;;0.00;0.00;;;;;;;;5065731;28;9695;-46
2021/06/16 12:15:13;;;;;;;;;0.00;0.00;;;;;;;;5068569;28;8801;-47
2021/06/16 12:17:57;;;;;;;;;0.00;0.00;;;;;;;;5067249;28;8779;-47
2021/06/16 12:20:23;;;;;;;;;0.00;0.00;;;;;;;;5064571;28;8812;-49
2021/06/16 12:22:49;;;;;;;;;0.00;0.00;;;;;;;;5068737;28;8754;-49
2021/06/16 12:25:40;;;;;;;;;0.00;0.00;;;;;;;;5073064;28;8776;-48
2021/06/16 12:28:06;;;;;;;;;0.75;0.75;;;;;;;;5068548;28;9586;-46
2021/06/16 12:30:32;;;;;;;;;0.00;0.00;;;;;;;;5064546;28;8791;-49
2021/06/16 12:33:11;;;;;;;;;0.00;0.00;;;;;;;;5064799;28;8819;-47
2021/06/16 12:35:42;;;;;;;;;0.00;0.00;;;;;;;;5065550;28;8775;-48
2021/06/16 12:38:07;;;;;;;;;0.00;0.00;;;;;;;;5066328;28;9564;-48
2021/06/16 12:40:34;;;;;;;;;0.00;0.00;;;;;;;;5065045;28;8830;-48
2021/06/16 12:42:59;;;;;;;;;0.00;0.00;;;;;;;;5068971;28;8929;-46
2021/06/16 12:45:37;;;;;;;;;0.00;0.00;;;;;;;;5066883;28;8801;-47
2021/06/16 12:48:21;;;;;;;;;0.00;0.00;;;;;;;;5067826;28;8785;-48
2021/06/16 12:50:53;;;;;;;;;0.00;0.00;;;;;;;;5066056;28;8829;-47
2021/06/16 12:53:19;;;;;;;;;0.00;0.00;;;;;;;;5067263;28;8767;-47
2021/06/16 12:55:46;;;;;;;;;0.00;0.00;;;;;;;;5066331;28;8798;-47
2021/06/16 12:58:11;;;;;;;;;0.75;0.00;;;;;;;;5070274;28;8767;-49
2021/06/16 13:00:36;;;;;;;;;0.00;0.00;;;;;;;;5065873;28;8835;-47
2021/06/16 13:03:15;;;;;;;;;0.00;0.00;;;;;;;;5065958;28;8919;-50
2021/06/16 13:05:42;;;;;;;;;0.00;0.00;;;;;;;;5068115;28;8807;-49
2021/06/16 13:08:07;;;;;;;;;0.25;0.25;;;;;;;;5070834;28;8812;-49
2021/06/16 13:10:37;;;;;;;;;0.00;0.00;;;;;;;;5065183;28;8789;-47
2021/06/16 13:13:13;;;;;;;;;0.75;0.00;;;;;;;;5070967;28;8827;-46
2021/06/16 13:15:38;;;;;;;;;0.00;0.00;;;;;;;;5065574;28;8927;-46
2021/06/16 13:18:05;;;;;;;;;0.00;0.00;;;;;;;;5068454;28;8911;-45
2021/06/16 13:20:34;;;;;;;;;0.00;0.00;;;;;;;;5065691;28;8800;-47
2021/06/16 13:23:11;;;;;;;;;0.00;0.00;;;;;;;;5069079;28;8781;-46
2021/06/16 13:25:37;;;;;;;;;0.00;0.00;;;;;;;;5065046;28;8799;-47
2021/06/16 13:28:02;;;;;;;;;0.00;0.00;;;;;;;;5070173;28;9574;-47
2021/06/16 13:30:32;;;;;;;;;0.00;0.00;;;;;;;;5063246;28;8835;-46
2021/06/16 13:32:58;;;;;;;;;0.00;0.00;;;;;;;;5070392;28;8771;-47
2021/06/16 13:35:24;;;;;;;;;0.00;0.00;;;;;;;;5067841;28;8923;-47
2021/06/16 13:37:49;;;;;;;;;0.00;0.00;;;;;;;;5077066;28;10048;-47
2021/06/16 13:40:15;;;;;;;;;0.00;0.00;;;;;;;;5071065;28;8801;-47
2021/06/16 13:42:51;;;;;;;;;0.00;0.00;;;;;;;;5067228;28;8800;-47
2021/06/16 13:45:16;;;;;;;;;0.25;0.00;;;;;;;;5074097;28;9573;-46
2021/06/16 13:47:42;;;;;;;;;0.00;0.00;;;;;;;;5071565;28;8797;-47
2021/06/16 13:50:07;;;;;;;;;0.00;0.00;;;;;;;;5074335;28;8815;-46
2021/06/16 13:52:32;;;;;;;;;0.00;0.00;;;;;;;;5069877;28;9631;-47
2021/06/16 13:54:58;;;;;;;;;0.00;0.00;;;;;;;;5074001;28;8767;-47
2021/06/16 13:57:23;;;;;;;;;0.00;0.00;;;;;;;;5073307;28;9990;-47
2021/06/16 13:59:48;;;;;;;;;0.00;0.00;;;;;;;;5071638;28;8894;-47
2021/06/16 14:02:13;;;;;;;;;0.33;0.00;;;;;;;;5070498;28;8859;-48
2021/06/16 14:04:39;;;;;;;;;0.00;0.00;;;;;;;;5074233;28;8774;-47
2021/06/16 14:07:04;;;;;;;;;0.00;0.00;;;;;;;;5072377;28;8798;-47
2021/06/16 14:09:29;;;;;;;;;0.67;0.00;;;;;;;;5071228;28;8868;-47
2021/06/16 14:11:54;;;;;;;;;0.00;0.00;;;;;;;;5085221;28;8825;-46
2021/06/16 14:14:19;;;;;;;;;0.00;0.00;;;;;;;;5092882;28;8771;-47
2021/06/16 14:16:44;;;;;;;;;0.00;0.00;;;;;;;;5091832;28;8747;-47
2021/06/16 14:19:10;;;;;;;;;0.00;0.00;;;;;;;;5092186;28;8956;-47
2021/06/16 14:21:35;;;;;;;;;1.00;1.00;;;;;;;;5090489;28;8753;-47
2021/06/16 14:24:00;;;;;;;;;0.00;0.00;;;;;;;;5094872;28;9011;-45
2021/06/16 14:26:25;;;;;;;;;0.00;0.00;;;;;;;;5090534;28;8788;-46
2021/06/16 14:28:51;;;;;;;;;0.33;0.00;;;;;;;;5095596;28;8772;-47
2021/06/16 14:31:17;;;;;;;;;0.00;0.00;;;;;;;;5091586;28;8831;-47
2021/06/16 14:33:42;;;;;;;;;0.00;0.00;;;;;;;;5097532;28;8782;-47
2021/06/16 14:36:08;;;;;;;;;0.00;0.00;;;;;;;;5093822;28;9505;-47
2021/06/16 14:38:33;;;;;;;;;0.00;0.00;;;;;;;;5097655;28;9006;-47
2021/06/16 14:40:58;;;;;;;;;0.00;0.00;;;;;;;;5092350;28;9227;-46
2021/06/16 14:43:23;;;;;;;;;0.00;0.00;;;;;;;;5091350;28;8810;-47
2021/06/16 14:45:48;;;;;;;;;0.00;0.00;;;;;;;;5091085;28;8777;-46
2021/06/16 14:48:13;;;;;;;;;0.00;0.00;;;;;;;;5094863;28;8778;-47
2021/06/16 14:50:39;;;;;;;;;0.00;0.00;;;;;;;;5092686;28;8748;-47
2021/06/16 14:53:04;;;;;;;;;0.67;0.00;;;;;;;;5097003;28;8837;-46
2021/06/16 14:55:29;;;;;;;;;0.00;0.00;;;;;;;;5092100;28;8783;-47